Domov               UVHVVR             MKGP            O straneh              
ZDRAVSTVENO VARSTVO RASTLIN
  MREŽA AGROMET. POSTAJ
 ► PROGNOSTIČNA OBVESTILA
AGROMETEOROLOŠKI PODATKI -
ARSO
OBVLADOVANJE TVEGANJ ZARADI
NEUGODNIH VREMENSKIH RAZMER
  ► NARAVNE NESREČE
  ► SUŠA/MOČA
  ► NAMAKANJE
  ► ŽLED (gozdarstvo)
KARTOGRAFSKI PRIKAZI
SPLETNE POVEZAVE
PROJEKTI IN PUBLIKACIJE

AGROMETEOROLOŠKA MREŽA: VREMENSKE POSTAJE IN FENOLOŠKA OPAZOVANJA

Pregled podatkov za lokacijo Godemarci, meteorološka postaja 37828

Pregled senzorjev na lokaciji

ID Ime Zadnja
vrednost
Datum
zadnje
spremembe
Tip
senzorja
4311 Omočenost lista (U) 0 U 17.7.2018 22:00 A730WET
3802 Padavine (mm) 0 mm 17.7.2018 22:00 Rain-O-Matic
3801 Relativna vlaga 2 m (% RH) 94,85 % RH 18.7.2018 00:00 50YA
3800 Temperatura 2 m (°C) 15,36 °C 18.7.2018 00:00 50YA

Pregled podatkov zadnjih 24 ur

Zap.
št.
Datum in čas Godemarci
Omočenost
lista
Padavine Relativna
vlaga
2
m
Temperatura
2
m
1 18.7.2018 00:30
2 18.7.2018 00:00
3 17.7.2018 23:30
4 17.7.2018 23:00 94,8 15,4
5 17.7.2018 22:30 89,9 15,9
6 17.7.2018 22:00 87,9 16,5
7 17.7.2018 21:30 89,6 16,8
8 17.7.2018 21:00 0 0 87,8 17
9 17.7.2018 20:30 0 0 87,7 17,1
10 17.7.2018 20:00 0 0 86,2 18,3
11 17.7.2018 19:30 0 0 81,1 20
12 17.7.2018 19:00 0 0 72,3 21,9
13 17.7.2018 18:30 0 0 58,8 25
14 17.7.2018 18:00 0 0 44,2 27,2
15 17.7.2018 17:30 0 0 38,8 27,6
16 17.7.2018 17:00 0 0 39,4 27,3
17 17.7.2018 16:30 0 0 39 27,2
18 17.7.2018 16:00 0 0 40,3 27,1
19 17.7.2018 15:30 0 0 42,4 26,8
20 17.7.2018 15:00 0 0 46,7 26,8
21 17.7.2018 14:30 0 0 53,8 26,1
22 17.7.2018 14:00 0 0 70,6 24,1
23 17.7.2018 13:30 0 0 87,5 20,5
24 17.7.2018 13:00 9 2,2 72,7 21,9
25 17.7.2018 12:30 0 0 49 27,1
26 17.7.2018 12:00 0 0 50,2 26,4
27 17.7.2018 11:30 0 0 48,7 26,7
28 17.7.2018 11:00 0 0 52,4 26,3
29 17.7.2018 10:30 0 0 54 26
30 17.7.2018 10:00 0 0 52,2 25,8
31 17.7.2018 09:30 0 0 55,4 25,5
32 17.7.2018 09:00 0 0 56 25,4
33 17.7.2018 08:30 0 0 61,8 23,8
34 17.7.2018 08:00 0 0 69,7 21,6
35 17.7.2018 07:30 0 0 73,9 20,7
36 17.7.2018 07:00 0 0 78,4 19,5
37 17.7.2018 06:30 0 0 94,6 17,8
38 17.7.2018 06:00 7 0 99,9 16,2
39 17.7.2018 05:30 10 0 99,9 15
40 17.7.2018 05:00 10 0 99,9 13,9
41 17.7.2018 04:30 10 0 99,9 13,8
42 17.7.2018 04:00 10 0 99,9 14
43 17.7.2018 03:30 10 0 99,9 14,3
44 17.7.2018 03:00 10 0 99,9 14,7
45 17.7.2018 02:30 10 0 99,9 15,1
46 17.7.2018 02:00 10 0 99,9 15,4
47 17.7.2018 01:30 10 0 99,9 15,7
48 17.7.2018 01:00 10 0 99,9 15,8
© 2011 Ministrstvo za kmetijstvo, gozdarstvo in prehrano. Vse pravice pridržane.